sensor_id;sensor_type;location;lat;lon;timestamp;temperature;humidity
11762;DHT22;5938;47.098;15.474;2023-05-14T00:02:20;10.20;99.90
11762;DHT22;5938;47.098;15.474;2023-05-14T00:06:23;10.30;99.90
11762;DHT22;5938;47.098;15.474;2023-05-14T00:10:28;10.30;99.90
11762;DHT22;5938;47.098;15.474;2023-05-14T00:14:31;10.30;99.90
11762;DHT22;5938;47.098;15.474;2023-05-14T00:18:36;10.30;99.90
11762;DHT22;5938;47.098;15.474;2023-05-14T00:22:39;10.30;99.90
11762;DHT22;5938;47.098;15.474;2023-05-14T00:26:43;10.30;99.90
11762;DHT22;5938;47.098;15.474;2023-05-14T00:30:46;10.30;99.90
11762;DHT22;5938;47.098;15.474;2023-05-14T00:34:50;10.30;99.90
11762;DHT22;5938;47.098;15.474;2023-05-14T00:38:54;10.30;99.90
11762;DHT22;5938;47.098;15.474;2023-05-14T00:42:57;10.30;99.90
11762;DHT22;5938;47.098;15.474;2023-05-14T00:47:00;10.30;99.90
11762;DHT22;5938;47.098;15.474;2023-05-14T00:51:05;10.30;99.90
11762;DHT22;5938;47.098;15.474;2023-05-14T00:55:11;10.30;99.90
11762;DHT22;5938;47.098;15.474;2023-05-14T00:59:17;10.30;99.90
11762;DHT22;5938;47.098;15.474;2023-05-14T01:03:20;10.30;99.90
11762;DHT22;5938;47.098;15.474;2023-05-14T01:07:30;10.30;99.90
11762;DHT22;5938;47.098;15.474;2023-05-14T01:11:40;10.30;99.90
11762;DHT22;5938;47.098;15.474;2023-05-14T01:15:45;10.30;99.90
11762;DHT22;5938;47.098;15.474;2023-05-14T01:19:50;10.30;99.90
11762;DHT22;5938;47.098;15.474;2023-05-14T01:23:55;10.30;99.90
11762;DHT22;5938;47.098;15.474;2023-05-14T01:28:02;10.30;99.90
11762;DHT22;5938;47.098;15.474;2023-05-14T01:32:09;10.30;99.90
11762;DHT22;5938;47.098;15.474;2023-05-14T01:36:14;10.40;99.90
11762;DHT22;5938;47.098;15.474;2023-05-14T01:40:19;10.40;99.90
11762;DHT22;5938;47.098;15.474;2023-05-14T01:44:23;10.40;99.90
11762;DHT22;5938;47.098;15.474;2023-05-14T01:48:27;10.40;99.90
11762;DHT22;5938;47.098;15.474;2023-05-14T01:52:30;10.40;99.90
11762;DHT22;5938;47.098;15.474;2023-05-14T01:56:36;10.30;99.90
11762;DHT22;5938;47.098;15.474;2023-05-14T02:00:39;10.40;99.90
11762;DHT22;5938;47.098;15.474;2023-05-14T02:04:43;10.30;99.90
11762;DHT22;5938;47.098;15.474;2023-05-14T02:08:46;10.30;99.90
11762;DHT22;5938;47.098;15.474;2023-05-14T02:12:50;10.30;99.90
11762;DHT22;5938;47.098;15.474;2023-05-14T02:16:54;10.30;99.90
11762;DHT22;5938;47.098;15.474;2023-05-14T02:20:57;10.40;99.90
11762;DHT22;5938;47.098;15.474;2023-05-14T02:25:00;10.40;99.90
11762;DHT22;5938;47.098;15.474;2023-05-14T02:29:05;10.30;99.90
11762;DHT22;5938;47.098;15.474;2023-05-14T02:33:08;10.40;99.90
11762;DHT22;5938;47.098;15.474;2023-05-14T02:37:12;10.40;99.90
11762;DHT22;5938;47.098;15.474;2023-05-14T02:41:15;10.40;99.90
11762;DHT22;5938;47.098;15.474;2023-05-14T02:45:19;10.40;99.90
11762;DHT22;5938;47.098;15.474;2023-05-14T02:49:23;10.40;99.90
11762;DHT22;5938;47.098;15.474;2023-05-14T02:53:26;10.30;99.90
11762;DHT22;5938;47.098;15.474;2023-05-14T02:57:30;10.30;99.90
11762;DHT22;5938;47.098;15.474;2023-05-14T03:01:34;10.40;99.90
11762;DHT22;5938;47.098;15.474;2023-05-14T03:05:38;10.30;99.90
11762;DHT22;5938;47.098;15.474;2023-05-14T03:09:41;10.30;99.90
11762;DHT22;5938;47.098;15.474;2023-05-14T03:13:44;10.30;99.90
11762;DHT22;5938;47.098;15.474;2023-05-14T03:17:49;10.30;99.90
11762;DHT22;5938;47.098;15.474;2023-05-14T03:21:52;10.30;99.90
11762;DHT22;5938;47.098;15.474;2023-05-14T03:25:56;10.30;99.90
11762;DHT22;5938;47.098;15.474;2023-05-14T03:29:59;10.20;99.90
11762;DHT22;5938;47.098;15.474;2023-05-14T03:34:04;10.30;99.90
11762;DHT22;5938;47.098;15.474;2023-05-14T03:38:07;10.30;99.90
11762;DHT22;5938;47.098;15.474;2023-05-14T03:42:10;10.20;99.90
11762;DHT22;5938;47.098;15.474;2023-05-14T03:46:15;10.30;99.90
11762;DHT22;5938;47.098;15.474;2023-05-14T03:50:19;10.20;99.90
11762;DHT22;5938;47.098;15.474;2023-05-14T03:54:26;10.30;99.90
11762;DHT22;5938;47.098;15.474;2023-05-14T03:58:29;10.20;99.90
11762;DHT22;5938;47.098;15.474;2023-05-14T04:02:33;10.30;99.90
11762;DHT22;5938;47.098;15.474;2023-05-14T04:06:38;10.30;99.90
11762;DHT22;5938;47.098;15.474;2023-05-14T04:10:41;10.30;99.90
11762;DHT22;5938;47.098;15.474;2023-05-14T04:14:45;10.30;99.90
11762;DHT22;5938;47.098;15.474;2023-05-14T04:18:48;10.30;99.90
11762;DHT22;5938;47.098;15.474;2023-05-14T04:22:53;10.30;99.90
11762;DHT22;5938;47.098;15.474;2023-05-14T04:26:56;10.30;99.90
11762;DHT22;5938;47.098;15.474;2023-05-14T04:31:00;10.30;99.90
11762;DHT22;5938;47.098;15.474;2023-05-14T04:35:04;10.30;99.90
11762;DHT22;5938;47.098;15.474;2023-05-14T04:39:09;10.20;99.90
11762;DHT22;5938;47.098;15.474;2023-05-14T04:43:15;10.20;99.90
11762;DHT22;5938;47.098;15.474;2023-05-14T04:47:19;10.20;99.90
11762;DHT22;5938;47.098;15.474;2023-05-14T04:51:23;10.30;99.90
11762;DHT22;5938;47.098;15.474;2023-05-14T04:55:29;10.30;99.90
11762;DHT22;5938;47.098;15.474;2023-05-14T04:59:32;10.30;99.90
11762;DHT22;5938;47.098;15.474;2023-05-14T05:03:35;10.30;99.90
11762;DHT22;5938;47.098;15.474;2023-05-14T05:07:39;10.30;99.90
11762;DHT22;5938;47.098;15.474;2023-05-14T05:11:44;10.40;99.90
11762;DHT22;5938;47.098;15.474;2023-05-14T05:15:47;10.40;99.90
11762;DHT22;5938;47.098;15.474;2023-05-14T05:19:50;10.40;99.90
11762;DHT22;5938;47.098;15.474;2023-05-14T05:23:55;10.40;99.90
11762;DHT22;5938;47.098;15.474;2023-05-14T05:27:59;10.50;99.90
11762;DHT22;5938;47.098;15.474;2023-05-14T05:32:03;10.50;99.90
11762;DHT22;5938;47.098;15.474;2023-05-14T05:36:07;10.50;99.90
11762;DHT22;5938;47.098;15.474;2023-05-14T05:40:11;10.60;99.90
11762;DHT22;5938;47.098;15.474;2023-05-14T05:44:16;10.60;99.90
11762;DHT22;5938;47.098;15.474;2023-05-14T05:48:19;10.70;99.90
11762;DHT22;5938;47.098;15.474;2023-05-14T05:52:22;10.60;99.90
11762;DHT22;5938;47.098;15.474;2023-05-14T05:56:42;10.70;99.90
11762;DHT22;5938;47.098;15.474;2023-05-14T06:00:46;10.70;99.90
11762;DHT22;5938;47.098;15.474;2023-05-14T06:04:49;10.60;99.90
11762;DHT22;5938;47.098;15.474;2023-05-14T06:08:54;10.60;99.90
11762;DHT22;5938;47.098;15.474;2023-05-14T06:12:58;10.60;99.90
11762;DHT22;5938;47.098;15.474;2023-05-14T06:17:01;10.60;99.90
11762;DHT22;5938;47.098;15.474;2023-05-14T06:21:05;10.60;99.90
11762;DHT22;5938;47.098;15.474;2023-05-14T06:25:09;10.60;99.90
11762;DHT22;5938;47.098;15.474;2023-05-14T06:29:14;10.60;99.90
11762;DHT22;5938;47.098;15.474;2023-05-14T06:33:17;10.60;99.90
11762;DHT22;5938;47.098;15.474;2023-05-14T06:37:22;10.80;99.90
11762;DHT22;5938;47.098;15.474;2023-05-14T06:41:25;10.70;99.90
11762;DHT22;5938;47.098;15.474;2023-05-14T06:45:30;10.70;99.90
11762;DHT22;5938;47.098;15.474;2023-05-14T06:49:34;10.90;99.90
11762;DHT22;5938;47.098;15.474;2023-05-14T06:53:38;10.90;99.90
11762;DHT22;5938;47.098;15.474;2023-05-14T06:57:41;11.00;99.90
11762;DHT22;5938;47.098;15.474;2023-05-14T07:01:47;11.00;99.90
11762;DHT22;5938;47.098;15.474;2023-05-14T07:05:50;11.10;99.90
11762;DHT22;5938;47.098;15.474;2023-05-14T07:09:53;11.00;99.90
11762;DHT22;5938;47.098;15.474;2023-05-14T07:13:57;10.90;99.90
11762;DHT22;5938;47.098;15.474;2023-05-14T07:18:01;11.00;99.90
11762;DHT22;5938;47.098;15.474;2023-05-14T07:22:05;11.00;99.90
11762;DHT22;5938;47.098;15.474;2023-05-14T07:26:08;10.90;99.90
11762;DHT22;5938;47.098;15.474;2023-05-14T07:30:12;10.90;99.90
11762;DHT22;5938;47.098;15.474;2023-05-14T07:34:17;10.80;99.90
11762;DHT22;5938;47.098;15.474;2023-05-14T07:38:20;10.90;99.90
11762;DHT22;5938;47.098;15.474;2023-05-14T07:42:23;10.90;99.90
11762;DHT22;5938;47.098;15.474;2023-05-14T07:46:37;10.90;99.90
11762;DHT22;5938;47.098;15.474;2023-05-14T07:50:41;10.90;99.90
11762;DHT22;5938;47.098;15.474;2023-05-14T07:54:44;10.90;99.90
11762;DHT22;5938;47.098;15.474;2023-05-14T07:58:50;10.90;99.90
11762;DHT22;5938;47.098;15.474;2023-05-14T08:02:54;10.90;99.90
11762;DHT22;5938;47.098;15.474;2023-05-14T08:06:59;11.00;99.90
11762;DHT22;5938;47.098;15.474;2023-05-14T08:11:02;11.20;99.90
11762;DHT22;5938;47.098;15.474;2023-05-14T08:15:07;11.30;99.90
11762;DHT22;5938;47.098;15.474;2023-05-14T08:19:11;11.40;99.90
11762;DHT22;5938;47.098;15.474;2023-05-14T08:23:16;11.40;99.90
11762;DHT22;5938;47.098;15.474;2023-05-14T08:27:20;11.30;99.90
11762;DHT22;5938;47.098;15.474;2023-05-14T08:31:23;11.20;99.90
11762;DHT22;5938;47.098;15.474;2023-05-14T08:35:27;11.30;99.90
11762;DHT22;5938;47.098;15.474;2023-05-14T08:39:31;11.40;99.90
11762;DHT22;5938;47.098;15.474;2023-05-14T08:43:43;11.30;99.90
11762;DHT22;5938;47.098;15.474;2023-05-14T08:47:48;11.20;99.90
11762;DHT22;5938;47.098;15.474;2023-05-14T08:51:52;11.30;99.90
11762;DHT22;5938;47.098;15.474;2023-05-14T08:55:58;11.10;99.90
11762;DHT22;5938;47.098;15.474;2023-05-14T09:00:02;11.20;99.90
11762;DHT22;5938;47.098;15.474;2023-05-14T09:04:10;11.20;99.90
11762;DHT22;5938;47.098;15.474;2023-05-14T09:08:14;11.10;99.90
11762;DHT22;5938;47.098;15.474;2023-05-14T09:12:20;11.20;99.90
11762;DHT22;5938;47.098;15.474;2023-05-14T09:16:24;11.30;99.90
11762;DHT22;5938;47.098;15.474;2023-05-14T09:20:28;11.30;99.90
11762;DHT22;5938;47.098;15.474;2023-05-14T09:24:33;11.40;99.90
11762;DHT22;5938;47.098;15.474;2023-05-14T09:28:40;11.40;99.90
11762;DHT22;5938;47.098;15.474;2023-05-14T09:32:43;11.20;99.90
11762;DHT22;5938;47.098;15.474;2023-05-14T09:36:47;11.30;99.90
11762;DHT22;5938;47.098;15.474;2023-05-14T09:40:50;11.30;99.90
11762;DHT22;5938;47.098;15.474;2023-05-14T09:44:55;11.30;99.90
11762;DHT22;5938;47.098;15.474;2023-05-14T09:48:58;11.20;99.90
11762;DHT22;5938;47.098;15.474;2023-05-14T09:53:02;11.10;99.90
11762;DHT22;5938;47.098;15.474;2023-05-14T09:57:06;11.00;99.90
11762;DHT22;5938;47.098;15.474;2023-05-14T10:01:10;11.00;99.90
11762;DHT22;5938;47.098;15.474;2023-05-14T10:05:14;10.90;99.90
11762;DHT22;5938;47.098;15.474;2023-05-14T10:09:19;11.00;99.90
11762;DHT22;5938;47.098;15.474;2023-05-14T10:13:29;11.10;99.90
11762;DHT22;5938;47.098;15.474;2023-05-14T10:17:35;11.40;99.90
11762;DHT22;5938;47.098;15.474;2023-05-14T10:21:44;11.60;99.90
11762;DHT22;5938;47.098;15.474;2023-05-14T10:25:48;12.20;99.90
11762;DHT22;5938;47.098;15.474;2023-05-14T10:29:52;12.40;99.90
11762;DHT22;5938;47.098;15.474;2023-05-14T10:33:57;13.00;99.90
11762;DHT22;5938;47.098;15.474;2023-05-14T10:38:01;13.20;99.90
11762;DHT22;5938;47.098;15.474;2023-05-14T10:42:10;13.20;99.90
11762;DHT22;5938;47.098;15.474;2023-05-14T10:46:14;12.80;99.90
11762;DHT22;5938;47.098;15.474;2023-05-14T10:50:20;12.70;99.90
11762;DHT22;5938;47.098;15.474;2023-05-14T10:54:27;12.80;99.90
11762;DHT22;5938;47.098;15.474;2023-05-14T10:58:30;12.80;99.90
11762;DHT22;5938;47.098;15.474;2023-05-14T11:02:35;12.80;99.90
11762;DHT22;5938;47.098;15.474;2023-05-14T11:06:41;12.50;99.90
11762;DHT22;5938;47.098;15.474;2023-05-14T11:10:46;12.60;99.90
11762;DHT22;5938;47.098;15.474;2023-05-14T11:14:49;12.60;99.90
11762;DHT22;5938;47.098;15.474;2023-05-14T11:19:00;12.60;99.90
11762;DHT22;5938;47.098;15.474;2023-05-14T11:23:05;12.70;99.90
11762;DHT22;5938;47.098;15.474;2023-05-14T11:27:09;12.50;99.90
11762;DHT22;5938;47.098;15.474;2023-05-14T11:31:13;12.50;99.90
11762;DHT22;5938;47.098;15.474;2023-05-14T11:35:17;12.50;99.90
11762;DHT22;5938;47.098;15.474;2023-05-14T11:39:21;12.30;99.90
11762;DHT22;5938;47.098;15.474;2023-05-14T11:43:25;12.20;99.90
11762;DHT22;5938;47.098;15.474;2023-05-14T11:47:30;12.10;99.90
11762;DHT22;5938;47.098;15.474;2023-05-14T11:51:35;12.10;99.90
11762;DHT22;5938;47.098;15.474;2023-05-14T11:55:39;11.80;99.90
11762;DHT22;5938;47.098;15.474;2023-05-14T11:59:43;11.80;99.90
11762;DHT22;5938;47.098;15.474;2023-05-14T12:03:47;11.90;99.90
11762;DHT22;5938;47.098;15.474;2023-05-14T12:07:50;11.90;99.90
11762;DHT22;5938;47.098;15.474;2023-05-14T12:11:55;11.80;99.90
11762;DHT22;5938;47.098;15.474;2023-05-14T12:15:59;11.80;99.90
11762;DHT22;5938;47.098;15.474;2023-05-14T12:20:04;11.70;99.90
11762;DHT22;5938;47.098;15.474;2023-05-14T12:24:12;11.60;99.90
11762;DHT22;5938;47.098;15.474;2023-05-14T12:28:18;11.40;99.90
11762;DHT22;5938;47.098;15.474;2023-05-14T12:32:21;11.30;99.90
11762;DHT22;5938;47.098;15.474;2023-05-14T12:36:27;11.20;99.90
11762;DHT22;5938;47.098;15.474;2023-05-14T12:40:31;11.20;99.90
11762;DHT22;5938;47.098;15.474;2023-05-14T12:44:36;11.10;99.90
11762;DHT22;5938;47.098;15.474;2023-05-14T12:48:39;10.90;99.90
11762;DHT22;5938;47.098;15.474;2023-05-14T12:52:42;11.10;99.90
11762;DHT22;5938;47.098;15.474;2023-05-14T12:56:46;11.10;99.90
11762;DHT22;5938;47.098;15.474;2023-05-14T13:00:50;11.00;99.90
11762;DHT22;5938;47.098;15.474;2023-05-14T13:04:54;11.00;99.90
11762;DHT22;5938;47.098;15.474;2023-05-14T13:08:57;10.90;99.90
11762;DHT22;5938;47.098;15.474;2023-05-14T13:13:02;10.90;99.90
11762;DHT22;5938;47.098;15.474;2023-05-14T13:17:07;10.90;99.90
11762;DHT22;5938;47.098;15.474;2023-05-14T13:21:10;11.00;99.90
11762;DHT22;5938;47.098;15.474;2023-05-14T13:25:14;10.90;99.90
11762;DHT22;5938;47.098;15.474;2023-05-14T13:29:17;10.90;99.90
11762;DHT22;5938;47.098;15.474;2023-05-14T13:33:22;10.80;99.90
11762;DHT22;5938;47.098;15.474;2023-05-14T13:37:25;10.80;99.90
11762;DHT22;5938;47.098;15.474;2023-05-14T13:41:28;10.70;99.90
11762;DHT22;5938;47.098;15.474;2023-05-14T13:45:35;10.50;99.90
11762;DHT22;5938;47.098;15.474;2023-05-14T13:49:42;10.60;99.90
11762;DHT22;5938;47.098;15.474;2023-05-14T13:53:45;10.70;99.90
11762;DHT22;5938;47.098;15.474;2023-05-14T13:57:48;10.80;99.90
11762;DHT22;5938;47.098;15.474;2023-05-14T14:01:52;10.70;99.90
11762;DHT22;5938;47.098;15.474;2023-05-14T14:05:56;10.60;99.90
11762;DHT22;5938;47.098;15.474;2023-05-14T14:10:00;10.80;99.90
11762;DHT22;5938;47.098;15.474;2023-05-14T14:14:03;10.90;99.90
11762;DHT22;5938;47.098;15.474;2023-05-14T14:18:07;10.70;99.90
11762;DHT22;5938;47.098;15.474;2023-05-14T14:22:12;10.80;99.90
11762;DHT22;5938;47.098;15.474;2023-05-14T14:26:20;10.90;99.90
11762;DHT22;5938;47.098;15.474;2023-05-14T14:30:23;10.90;99.90
11762;DHT22;5938;47.098;15.474;2023-05-14T14:34:27;10.90;99.90
11762;DHT22;5938;47.098;15.474;2023-05-14T14:38:32;10.90;99.90
11762;DHT22;5938;47.098;15.474;2023-05-14T14:42:38;10.90;99.90
11762;DHT22;5938;47.098;15.474;2023-05-14T14:46:42;10.90;99.90
11762;DHT22;5938;47.098;15.474;2023-05-14T14:50:46;10.90;99.90
11762;DHT22;5938;47.098;15.474;2023-05-14T14:54:52;10.90;99.90
11762;DHT22;5938;47.098;15.474;2023-05-14T14:58:57;10.90;99.90
11762;DHT22;5938;47.098;15.474;2023-05-14T15:03:01;11.00;99.90
11762;DHT22;5938;47.098;15.474;2023-05-14T15:07:05;11.10;99.90
11762;DHT22;5938;47.098;15.474;2023-05-14T15:11:10;10.90;99.90
11762;DHT22;5938;47.098;15.474;2023-05-14T15:15:14;11.00;99.90
11762;DHT22;5938;47.098;15.474;2023-05-14T15:19:18;11.00;99.90
11762;DHT22;5938;47.098;15.474;2023-05-14T15:23:22;11.00;99.90
11762;DHT22;5938;47.098;15.474;2023-05-14T15:27:28;11.00;99.90
11762;DHT22;5938;47.098;15.474;2023-05-14T15:31:33;10.90;99.90
11762;DHT22;5938;47.098;15.474;2023-05-14T15:35:37;10.90;99.90
11762;DHT22;5938;47.098;15.474;2023-05-14T15:39:41;10.90;99.90
11762;DHT22;5938;47.098;15.474;2023-05-14T15:43:47;11.00;99.90
11762;DHT22;5938;47.098;15.474;2023-05-14T15:47:52;10.90;99.90
11762;DHT22;5938;47.098;15.474;2023-05-14T15:51:58;10.90;99.90
11762;DHT22;5938;47.098;15.474;2023-05-14T15:56:05;10.90;99.90
11762;DHT22;5938;47.098;15.474;2023-05-14T16:00:12;11.00;99.90
11762;DHT22;5938;47.098;15.474;2023-05-14T16:04:17;11.00;99.90
11762;DHT22;5938;47.098;15.474;2023-05-14T16:08:21;11.10;99.90
11762;DHT22;5938;47.098;15.474;2023-05-14T16:12:26;11.00;99.90
11762;DHT22;5938;47.098;15.474;2023-05-14T16:16:32;10.80;99.90
11762;DHT22;5938;47.098;15.474;2023-05-14T16:20:36;10.80;99.90
11762;DHT22;5938;47.098;15.474;2023-05-14T16:24:41;10.80;99.90
11762;DHT22;5938;47.098;15.474;2023-05-14T16:28:47;10.90;99.90
11762;DHT22;5938;47.098;15.474;2023-05-14T16:32:52;10.80;99.90
11762;DHT22;5938;47.098;15.474;2023-05-14T16:36:58;10.80;99.90
11762;DHT22;5938;47.098;15.474;2023-05-14T16:41:02;10.90;99.90
11762;DHT22;5938;47.098;15.474;2023-05-14T16:45:09;10.90;99.90
11762;DHT22;5938;47.098;15.474;2023-05-14T16:49:14;10.90;99.90
11762;DHT22;5938;47.098;15.474;2023-05-14T16:53:18;11.10;99.90
11762;DHT22;5938;47.098;15.474;2023-05-14T16:57:23;11.20;99.90
11762;DHT22;5938;47.098;15.474;2023-05-14T17:01:28;11.20;99.90
11762;DHT22;5938;47.098;15.474;2023-05-14T17:05:35;11.30;99.90
11762;DHT22;5938;47.098;15.474;2023-05-14T17:09:39;11.10;99.90
11762;DHT22;5938;47.098;15.474;2023-05-14T17:13:42;11.00;99.90
11762;DHT22;5938;47.098;15.474;2023-05-14T17:17:46;11.00;99.90
11762;DHT22;5938;47.098;15.474;2023-05-14T17:21:51;11.00;99.90
11762;DHT22;5938;47.098;15.474;2023-05-14T17:25:56;10.90;99.90
11762;DHT22;5938;47.098;15.474;2023-05-14T17:30:00;10.90;99.90
11762;DHT22;5938;47.098;15.474;2023-05-14T17:34:05;10.80;99.90
11762;DHT22;5938;47.098;15.474;2023-05-14T17:38:10;10.70;99.90
11762;DHT22;5938;47.098;15.474;2023-05-14T17:42:14;10.80;99.90
11762;DHT22;5938;47.098;15.474;2023-05-14T17:46:19;10.80;99.90
11762;DHT22;5938;47.098;15.474;2023-05-14T17:50:23;10.70;99.90
11762;DHT22;5938;47.098;15.474;2023-05-14T17:54:29;10.70;99.90
11762;DHT22;5938;47.098;15.474;2023-05-14T17:58:34;10.60;99.90
11762;DHT22;5938;47.098;15.474;2023-05-14T18:02:38;10.60;99.90
11762;DHT22;5938;47.098;15.474;2023-05-14T18:06:43;10.60;99.90
11762;DHT22;5938;47.098;15.474;2023-05-14T18:10:50;10.60;99.90
11762;DHT22;5938;47.098;15.474;2023-05-14T18:14:54;10.70;99.90
11762;DHT22;5938;47.098;15.474;2023-05-14T18:18:58;10.60;99.90
11762;DHT22;5938;47.098;15.474;2023-05-14T18:23:03;10.60;99.90
11762;DHT22;5938;47.098;15.474;2023-05-14T18:27:09;10.50;99.90
11762;DHT22;5938;47.098;15.474;2023-05-14T18:31:13;10.50;99.90
11762;DHT22;5938;47.098;15.474;2023-05-14T18:35:18;10.50;99.90
11762;DHT22;5938;47.098;15.474;2023-05-14T18:39:26;10.40;99.90
11762;DHT22;5938;47.098;15.474;2023-05-14T18:43:31;10.40;99.90
11762;DHT22;5938;47.098;15.474;2023-05-14T18:48:47;10.30;99.90
11762;DHT22;5938;47.098;15.474;2023-05-14T18:53:34;10.30;99.90
11762;DHT22;5938;47.098;15.474;2023-05-14T18:57:41;10.30;99.90
11762;DHT22;5938;47.098;15.474;2023-05-14T19:01:49;10.30;99.90
11762;DHT22;5938;47.098;15.474;2023-05-14T19:05:54;10.30;99.90
11762;DHT22;5938;47.098;15.474;2023-05-14T19:09:59;10.30;99.90
11762;DHT22;5938;47.098;15.474;2023-05-14T19:14:06;10.30;99.90
11762;DHT22;5938;47.098;15.474;2023-05-14T19:18:13;10.30;99.90
11762;DHT22;5938;47.098;15.474;2023-05-14T19:22:19;10.30;99.90
11762;DHT22;5938;47.098;15.474;2023-05-14T19:26:24;10.30;99.90
11762;DHT22;5938;47.098;15.474;2023-05-14T19:30:28;10.30;99.90
11762;DHT22;5938;47.098;15.474;2023-05-14T19:34:33;10.20;99.90
11762;DHT22;5938;47.098;15.474;2023-05-14T19:38:38;10.20;99.90
11762;DHT22;5938;47.098;15.474;2023-05-14T19:42:43;10.30;99.90
11762;DHT22;5938;47.098;15.474;2023-05-14T19:46:48;10.20;99.90
11762;DHT22;5938;47.098;15.474;2023-05-14T19:50:54;10.20;99.90
11762;DHT22;5938;47.098;15.474;2023-05-14T19:54:58;10.30;99.90
11762;DHT22;5938;47.098;15.474;2023-05-14T19:59:03;10.20;99.90
11762;DHT22;5938;47.098;15.474;2023-05-14T20:03:10;10.30;99.90
11762;DHT22;5938;47.098;15.474;2023-05-14T20:07:18;10.30;99.90
11762;DHT22;5938;47.098;15.474;2023-05-14T20:11:22;10.30;99.90
11762;DHT22;5938;47.098;15.474;2023-05-14T20:15:27;10.10;99.90
11762;DHT22;5938;47.098;15.474;2023-05-14T20:19:31;10.20;99.90
11762;DHT22;5938;47.098;15.474;2023-05-14T20:23:37;10.20;99.90
11762;DHT22;5938;47.098;15.474;2023-05-14T20:27:41;10.20;99.90
11762;DHT22;5938;47.098;15.474;2023-05-14T20:31:48;10.20;99.90
11762;DHT22;5938;47.098;15.474;2023-05-14T20:35:54;10.10;99.90
11762;DHT22;5938;47.098;15.474;2023-05-14T20:40:00;10.10;99.90
11762;DHT22;5938;47.098;15.474;2023-05-14T20:44:35;10.10;99.90
11762;DHT22;5938;47.098;15.474;2023-05-14T20:48:42;10.10;99.90
11762;DHT22;5938;47.098;15.474;2023-05-14T20:52:46;10.10;99.90
11762;DHT22;5938;47.098;15.474;2023-05-14T20:56:51;10.10;99.90
11762;DHT22;5938;47.098;15.474;2023-05-14T21:00:54;10.00;99.90
11762;DHT22;5938;47.098;15.474;2023-05-14T21:05:00;10.00;99.90
11762;DHT22;5938;47.098;15.474;2023-05-14T21:09:04;10.00;99.90
11762;DHT22;5938;47.098;15.474;2023-05-14T21:13:09;9.90;99.90
11762;DHT22;5938;47.098;15.474;2023-05-14T21:17:12;9.90;99.90
11762;DHT22;5938;47.098;15.474;2023-05-14T21:21:15;10.00;99.90
11762;DHT22;5938;47.098;15.474;2023-05-14T21:25:18;10.00;99.90
11762;DHT22;5938;47.098;15.474;2023-05-14T21:29:23;10.00;99.90
11762;DHT22;5938;47.098;15.474;2023-05-14T21:33:26;10.00;99.90
11762;DHT22;5938;47.098;15.474;2023-05-14T21:37:31;9.90;99.90
11762;DHT22;5938;47.098;15.474;2023-05-14T21:41:34;10.00;99.90
11762;DHT22;5938;47.098;15.474;2023-05-14T21:45:39;10.00;99.90
11762;DHT22;5938;47.098;15.474;2023-05-14T21:49:42;10.00;99.90
11762;DHT22;5938;47.098;15.474;2023-05-14T21:53:45;10.00;99.90
11762;DHT22;5938;47.098;15.474;2023-05-14T21:57:49;9.90;99.90
11762;DHT22;5938;47.098;15.474;2023-05-14T22:01:54;10.00;99.90
11762;DHT22;5938;47.098;15.474;2023-05-14T22:06:08;9.90;99.90
11762;DHT22;5938;47.098;15.474;2023-05-14T22:10:13;9.80;99.90
11762;DHT22;5938;47.098;15.474;2023-05-14T22:14:17;9.70;99.90
11762;DHT22;5938;47.098;15.474;2023-05-14T22:18:21;9.60;99.90
11762;DHT22;5938;47.098;15.474;2023-05-14T22:22:25;9.60;99.90
11762;DHT22;5938;47.098;15.474;2023-05-14T22:26:28;9.70;99.90
11762;DHT22;5938;47.098;15.474;2023-05-14T22:30:31;9.60;99.90
11762;DHT22;5938;47.098;15.474;2023-05-14T22:34:36;9.70;99.90
11762;DHT22;5938;47.098;15.474;2023-05-14T22:38:39;9.70;99.90
11762;DHT22;5938;47.098;15.474;2023-05-14T22:42:44;9.60;99.90
11762;DHT22;5938;47.098;15.474;2023-05-14T22:46:48;9.60;99.90
11762;DHT22;5938;47.098;15.474;2023-05-14T22:50:54;9.40;99.90
11762;DHT22;5938;47.098;15.474;2023-05-14T22:54:57;9.20;99.90
11762;DHT22;5938;47.098;15.474;2023-05-14T22:59:01;9.00;99.90
11762;DHT22;5938;47.098;15.474;2023-05-14T23:03:04;8.90;99.90
11762;DHT22;5938;47.098;15.474;2023-05-14T23:07:09;9.00;99.90
11762;DHT22;5938;47.098;15.474;2023-05-14T23:11:13;9.10;99.90
11762;DHT22;5938;47.098;15.474;2023-05-14T23:15:16;9.10;99.90
11762;DHT22;5938;47.098;15.474;2023-05-14T23:19:20;9.10;99.90
11762;DHT22;5938;47.098;15.474;2023-05-14T23:23:25;9.00;99.90
11762;DHT22;5938;47.098;15.474;2023-05-14T23:27:28;9.10;99.90
11762;DHT22;5938;47.098;15.474;2023-05-14T23:31:31;9.10;99.90
11762;DHT22;5938;47.098;15.474;2023-05-14T23:35:36;9.10;99.90
11762;DHT22;5938;47.098;15.474;2023-05-14T23:39:41;9.10;99.90
11762;DHT22;5938;47.098;15.474;2023-05-14T23:43:44;9.10;99.90
11762;DHT22;5938;47.098;15.474;2023-05-14T23:47:47;9.20;99.90
11762;DHT22;5938;47.098;15.474;2023-05-14T23:51:50;9.20;99.90
11762;DHT22;5938;47.098;15.474;2023-05-14T23:55:55;9.20;99.90
11762;DHT22;5938;47.098;15.474;2023-05-14T23:59:58;9.20;99.90
